Strona główna
METAR-TAF:

METAR-TAF

Lotnisko :

Farnborough, Anglia

Szerokość geograficzna: 51-17N, Długość geograficzna: 000-46W, wysokość: 65 m

Aktualna obserwacja pogody

Raport powstał 10 minut temu, godzina 18:50 UTC
Wiatr 14 kt od wschodnio-północny wschód
Temperatura 20°C
Wilgotność 35%
Ciśnienie 1021 hPa
Widzialność 10 km lub więcej

METAR: EGLF 301850Z AUTO 06014KT 9999 NCD 20/04 Q1021

czas: 20:00 (19:00 UTC)

Prognoza

Raport powstał 4 godziny i 57 minut temu, godzina 14:03 UTC
Prognoza ważna od 30 godzina 15 UTC do 30 godzina 19 UTC
Wiatr 12 kt od wschód
Widzialność 10 km lub więcej
Brak chmur poniżej 1500 m i brak chmur cumulonimbus

TAF: EGLF 301403Z 3015/3019 08012KT CAVOK

Obserwacja i prognoza pogody dla ponad 4000 lotnisk (raport METAR i TAF).

Dostępne stacje oznaczono żółtymi i czerwonymi punktami na mapie.

Najedź kursorem aby zobaczyć nazwę stacji.

Kliknij aby zobaczyć obserwacje i prognozy pogody.

Aby zmienić mapę: kliknij na zielony przycisk z czarnym krzyżykiem, aby powiększyć; na zielony przycisk z myślnikiem, aby pomniejszyć; na zielone strzałki, aby przejść do map sąsiednich.


METAR-TAF: